sensor_id;sensor_type;location;lat;lon;timestamp;pressure;altitude;pressure_sealevel;temperature;humidity
40205;BME280;26963;42.666;23.366;2023-07-22T00:01:19;94875.63;;;28.26;37.36
40205;BME280;26963;42.666;23.366;2023-07-22T00:03:44;94880.78;;;28.24;36.96
40205;BME280;26963;42.666;23.366;2023-07-22T00:06:10;94869.53;;;28.07;37.30
40205;BME280;26963;42.666;23.366;2023-07-22T00:08:37;94833.59;;;27.83;37.43
40205;BME280;26963;42.666;23.366;2023-07-22T00:11:07;94899.31;;;28.16;37.29
40205;BME280;26963;42.666;23.366;2023-07-22T00:13:33;94913.84;;;28.17;37.95
40205;BME280;26963;42.666;23.366;2023-07-22T00:15:59;94901.38;;;28.01;38.34
40205;BME280;26963;42.666;23.366;2023-07-22T00:18:27;94908.84;;;27.97;38.72
40205;BME280;26963;42.666;23.366;2023-07-22T00:20:54;94898.41;;;27.81;38.90
40205;BME280;26963;42.666;23.366;2023-07-22T00:23:20;94903.88;;;27.85;38.99
40205;BME280;26963;42.666;23.366;2023-07-22T00:25:49;94905.84;;;27.80;39.35
40205;BME280;26963;42.666;23.366;2023-07-22T00:28:15;94897.28;;;27.71;39.50
40205;BME280;26963;42.666;23.366;2023-07-22T00:30:41;94888.00;;;27.58;38.85
40205;BME280;26963;42.666;23.366;2023-07-22T00:33:07;94904.81;;;27.63;39.12
40205;BME280;26963;42.666;23.366;2023-07-22T00:35:33;94847.34;;;27.27;39.46
40205;BME280;26963;42.666;23.366;2023-07-22T00:38:01;94834.84;;;27.19;39.43
40205;BME280;26963;42.666;23.366;2023-07-22T00:40:27;94897.44;;;27.49;39.49
40205;BME280;26963;42.666;23.366;2023-07-22T00:42:55;94911.13;;;27.60;39.78
40205;BME280;26963;42.666;23.366;2023-07-22T00:45:21;94869.66;;;27.33;39.83
40205;BME280;26963;42.666;23.366;2023-07-22T00:47:46;94910.75;;;27.55;39.70
40205;BME280;26963;42.666;23.366;2023-07-22T00:50:12;94884.59;;;27.28;40.15
40205;BME280;26963;42.666;23.366;2023-07-22T00:52:38;94856.09;;;27.04;40.10
40205;BME280;26963;42.666;23.366;2023-07-22T00:55:05;94788.13;;;26.56;39.61
40205;BME280;26963;42.666;23.366;2023-07-22T00:57:31;94911.28;;;27.31;40.29
40205;BME280;26963;42.666;23.366;2023-07-22T00:59:56;94923.78;;;27.36;39.93
40205;BME280;26963;42.666;23.366;2023-07-22T01:02:22;94899.91;;;27.26;40.20
40205;BME280;26963;42.666;23.366;2023-07-22T01:04:49;94914.78;;;27.39;40.12
40205;BME280;26963;42.666;23.366;2023-07-22T01:07:15;94918.28;;;27.36;40.23
40205;BME280;26963;42.666;23.366;2023-07-22T01:09:42;94908.56;;;27.28;40.90
40205;BME280;26963;42.666;23.366;2023-07-22T01:12:08;94803.00;;;26.51;41.69
40205;BME280;26963;42.666;23.366;2023-07-22T01:14:36;94902.31;;;27.24;41.66
40205;BME280;26963;42.666;23.366;2023-07-22T01:17:03;94885.44;;;27.18;41.60
40205;BME280;26963;42.666;23.366;2023-07-22T01:19:30;94895.69;;;27.10;40.38
40205;BME280;26963;42.666;23.366;2023-07-22T01:22:02;94855.88;;;26.69;41.00
40205;BME280;26963;42.666;23.366;2023-07-22T01:24:28;94904.78;;;27.00;40.96
40205;BME280;26963;42.666;23.366;2023-07-22T01:26:55;94900.47;;;26.95;41.29
40205;BME280;26963;42.666;23.366;2023-07-22T01:29:22;94896.94;;;26.95;40.86
40205;BME280;26963;42.666;23.366;2023-07-22T01:31:50;94889.13;;;26.90;41.07
40205;BME280;26963;42.666;23.366;2023-07-22T01:34:16;94896.56;;;26.93;40.54
40205;BME280;26963;42.666;23.366;2023-07-22T01:36:43;94880.47;;;26.95;40.60
40205;BME280;26963;42.666;23.366;2023-07-22T01:39:08;94861.72;;;26.82;41.32
40205;BME280;26963;42.666;23.366;2023-07-22T01:41:36;94871.91;;;26.82;40.84
40205;BME280;26963;42.666;23.366;2023-07-22T01:44:02;94874.28;;;26.80;41.73
40205;BME280;26963;42.666;23.366;2023-07-22T01:46:27;94772.59;;;26.13;41.55
40205;BME280;26963;42.666;23.366;2023-07-22T01:48:53;94879.00;;;26.79;41.24
40205;BME280;26963;42.666;23.366;2023-07-22T01:51:20;94859.38;;;26.70;41.51
40205;BME280;26963;42.666;23.366;2023-07-22T01:53:45;94837.09;;;26.53;42.03
40205;BME280;26963;42.666;23.366;2023-07-22T01:56:11;94868.03;;;26.76;42.21
40205;BME280;26963;42.666;23.366;2023-07-22T01:58:36;94876.66;;;26.74;42.48
40205;BME280;26963;42.666;23.366;2023-07-22T02:01:02;94873.13;;;26.74;42.90
40205;BME280;26963;42.666;23.366;2023-07-22T02:03:27;94810.16;;;26.27;43.22
40205;BME280;26963;42.666;23.366;2023-07-22T02:05:53;94875.09;;;26.66;43.17
40205;BME280;26963;42.666;23.366;2023-07-22T02:08:19;94868.03;;;26.61;43.54
40205;BME280;26963;42.666;23.366;2023-07-22T02:10:45;94847.72;;;26.48;43.61
40205;BME280;26963;42.666;23.366;2023-07-22T02:13:10;94812.16;;;26.23;44.34
40205;BME280;26963;42.666;23.366;2023-07-22T02:15:36;94860.63;;;26.54;44.27
40205;BME280;26963;42.666;23.366;2023-07-22T02:18:02;94803.94;;;26.12;44.18
40205;BME280;26963;42.666;23.366;2023-07-22T02:20:27;94860.25;;;26.49;44.21
40205;BME280;26963;42.666;23.366;2023-07-22T02:22:55;94808.25;;;26.16;44.49
40205;BME280;26963;42.666;23.366;2023-07-22T02:25:22;94864.94;;;26.52;44.40
40205;BME280;26963;42.666;23.366;2023-07-22T02:27:48;94832.50;;;26.29;44.47
40205;BME280;26963;42.666;23.366;2023-07-22T02:30:13;94868.09;;;26.50;44.71
40205;BME280;26963;42.666;23.366;2023-07-22T02:32:39;94879.06;;;26.54;45.08
40205;BME280;26963;42.666;23.366;2023-07-22T02:35:07;94833.69;;;26.17;44.88
40205;BME280;26963;42.666;23.366;2023-07-22T02:37:34;94879.09;;;26.36;45.42
40205;BME280;26963;42.666;23.366;2023-07-22T02:39:59;94881.06;;;26.32;45.65
40205;BME280;26963;42.666;23.366;2023-07-22T02:42:25;94889.69;;;26.41;45.81
40205;BME280;26963;42.666;23.366;2023-07-22T02:44:51;94808.63;;;25.97;45.42
40205;BME280;26963;42.666;23.366;2023-07-22T02:47:17;94879.06;;;26.50;45.35
40205;BME280;26963;42.666;23.366;2023-07-22T02:49:43;94880.63;;;26.51;45.11
40205;BME280;26963;42.666;23.366;2023-07-22T02:52:09;94839.16;;;26.24;45.12
40205;BME280;26963;42.666;23.366;2023-07-22T02:54:39;94882.56;;;26.54;45.12
40205;BME280;26963;42.666;23.366;2023-07-22T02:57:05;94886.13;;;26.51;45.48
40205;BME280;26963;42.666;23.366;2023-07-22T02:59:30;94868.50;;;26.38;45.46
40205;BME280;26963;42.666;23.366;2023-07-22T03:01:56;94841.13;;;26.24;45.20
40205;BME280;26963;42.666;23.366;2023-07-22T03:04:22;94882.97;;;26.49;45.47
40205;BME280;26963;42.666;23.366;2023-07-22T03:06:48;94893.53;;;26.54;45.30
40205;BME280;26963;42.666;23.366;2023-07-22T03:09:14;94877.50;;;26.49;45.78
40205;BME280;26963;42.666;23.366;2023-07-22T03:11:39;94837.59;;;26.19;45.65
40205;BME280;26963;42.666;23.366;2023-07-22T03:14:05;94881.81;;;26.50;45.90
40205;BME280;26963;42.666;23.366;2023-07-22T03:16:30;94841.91;;;26.28;45.82
40205;BME280;26963;42.666;23.366;2023-07-22T03:18:57;94878.25;;;26.53;46.01
40205;BME280;26963;42.666;23.366;2023-07-22T03:21:23;94893.94;;;26.57;46.10
40205;BME280;26963;42.666;23.366;2023-07-22T03:23:49;94897.84;;;26.56;46.29
40205;BME280;26963;42.666;23.366;2023-07-22T03:26:14;94863.78;;;26.42;46.85
40205;BME280;26963;42.666;23.366;2023-07-22T03:28:40;94737.47;;;25.53;46.43
40205;BME280;26963;42.666;23.366;2023-07-22T03:31:07;94881.00;;;26.50;46.71
40205;BME280;26963;42.666;23.366;2023-07-22T03:33:34;94847.03;;;26.18;46.80
40205;BME280;26963;42.666;23.366;2023-07-22T03:36:00;94898.63;;;26.52;46.77
40205;BME280;26963;42.666;23.366;2023-07-22T03:38:26;94912.75;;;26.54;47.15
40205;BME280;26963;42.666;23.366;2023-07-22T03:40:52;94898.63;;;26.52;46.10
40205;BME280;26963;42.666;23.366;2023-07-22T03:43:20;94903.75;;;26.54;47.08
40205;BME280;26963;42.666;23.366;2023-07-22T03:45:45;94875.16;;;26.37;46.75
40205;BME280;26963;42.666;23.366;2023-07-22T03:48:11;94926.81;;;26.71;47.26
40205;BME280;26963;42.666;23.366;2023-07-22T03:50:37;94919.38;;;26.72;47.18
40205;BME280;26963;42.666;23.366;2023-07-22T03:53:02;94921.34;;;26.75;47.33
40205;BME280;26963;42.666;23.366;2023-07-22T03:55:28;94932.28;;;26.85;46.82
40205;BME280;26963;42.666;23.366;2023-07-22T03:57:53;94882.91;;;26.64;46.37
40205;BME280;26963;42.666;23.366;2023-07-22T04:00:20;94928.31;;;26.94;46.72
40205;BME280;26963;42.666;23.366;2023-07-22T04:02:46;94943.56;;;27.09;46.71
40205;BME280;26963;42.666;23.366;2023-07-22T04:05:12;94915.00;;;26.96;45.91
40205;BME280;26963;42.666;23.366;2023-07-22T04:07:38;94935.69;;;27.15;46.40
40205;BME280;26963;42.666;23.366;2023-07-22T04:10:04;94897.69;;;27.06;46.06
40205;BME280;26963;42.666;23.366;2023-07-22T04:12:30;94936.31;;;27.52;45.20
40205;BME280;26963;42.666;23.366;2023-07-22T04:14:56;94932.34;;;27.53;44.97
40205;BME280;26963;42.666;23.366;2023-07-22T04:17:21;94933.44;;;27.70;44.92
40205;BME280;26963;42.666;23.366;2023-07-22T04:19:47;94929.41;;;27.81;44.24
40205;BME280;26963;42.666;23.366;2023-07-22T04:22:13;94928.50;;;27.99;44.27
40205;BME280;26963;42.666;23.366;2023-07-22T04:24:38;94901.13;;;27.85;44.16
40205;BME280;26963;42.666;23.366;2023-07-22T04:27:04;94929.94;;;28.18;43.88
40205;BME280;26963;42.666;23.366;2023-07-22T04:29:30;94934.47;;;28.39;43.52
40205;BME280;26963;42.666;23.366;2023-07-22T04:32:00;94944.50;;;28.57;43.31
40205;BME280;26963;42.666;23.366;2023-07-22T04:34:30;94953.00;;;28.73;42.75
40205;BME280;26963;42.666;23.366;2023-07-22T04:36:56;94964.59;;;28.92;42.21
40205;BME280;26963;42.666;23.366;2023-07-22T04:39:21;94905.69;;;28.86;42.08
40205;BME280;26963;42.666;23.366;2023-07-22T04:41:48;94956.19;;;29.37;41.74
40205;BME280;26963;42.666;23.366;2023-07-22T04:44:14;94930.94;;;29.42;40.96
40205;BME280;26963;42.666;23.366;2023-07-22T04:46:39;94926.47;;;29.52;39.57
40205;BME280;26963;42.666;23.366;2023-07-22T04:49:06;94941.81;;;29.53;40.34
40205;BME280;26963;42.666;23.366;2023-07-22T04:51:31;94906.78;;;29.23;40.34
40205;BME280;26963;42.666;23.366;2023-07-22T04:53:57;94942.38;;;29.41;39.77
40205;BME280;26963;42.666;23.366;2023-07-22T04:56:22;94899.91;;;29.07;39.72
40205;BME280;26963;42.666;23.366;2023-07-22T04:58:48;94938.28;;;29.22;39.77
40205;BME280;26963;42.666;23.366;2023-07-22T05:01:15;94946.34;;;29.05;40.18
40205;BME280;26963;42.666;23.366;2023-07-22T05:03:40;94962.94;;;28.98;40.88
40205;BME280;26963;42.666;23.366;2023-07-22T05:06:06;94953.56;;;28.92;41.26
40205;BME280;26963;42.666;23.366;2023-07-22T05:08:31;94965.34;;;28.96;40.90
40205;BME280;26963;42.666;23.366;2023-07-22T05:10:57;94954.47;;;28.82;41.14
40205;BME280;26963;42.666;23.366;2023-07-22T05:13:22;94966.41;;;28.71;41.45
40205;BME280;26963;42.666;23.366;2023-07-22T05:15:48;94962.91;;;28.63;41.52
40205;BME280;26963;42.666;23.366;2023-07-22T05:18:14;94927.78;;;28.40;41.55
40205;BME280;26963;42.666;23.366;2023-07-22T05:20:39;94964.09;;;28.62;41.63
40205;BME280;26963;42.666;23.366;2023-07-22T05:23:05;94986.09;;;28.70;41.75
40205;BME280;26963;42.666;23.366;2023-07-22T05:25:30;94963.31;;;28.62;41.49
40205;BME280;26963;42.666;23.366;2023-07-22T05:27:56;94948.88;;;28.54;41.78
40205;BME280;26963;42.666;23.366;2023-07-22T05:30:21;94932.72;;;28.53;41.58
40205;BME280;26963;42.666;23.366;2023-07-22T05:32:47;94975.00;;;28.77;41.58
40205;BME280;26963;42.666;23.366;2023-07-22T05:35:12;94928.06;;;28.50;41.24
40205;BME280;26963;42.666;23.366;2023-07-22T05:37:38;94973.41;;;28.79;41.54
40205;BME280;26963;42.666;23.366;2023-07-22T05:40:04;94967.13;;;28.75;41.72
40205;BME280;26963;42.666;23.366;2023-07-22T05:42:30;94977.69;;;28.80;41.35
40205;BME280;26963;42.666;23.366;2023-07-22T05:44:57;94941.72;;;28.60;41.12
40205;BME280;26963;42.666;23.366;2023-07-22T05:47:23;94964.03;;;28.73;41.19
40205;BME280;26963;42.666;23.366;2023-07-22T05:49:48;94970.19;;;28.85;40.90
40205;BME280;26963;42.666;23.366;2023-07-22T05:52:14;94922.06;;;28.58;40.80
40205;BME280;26963;42.666;23.366;2023-07-22T05:54:39;94927.13;;;28.67;40.55
40205;BME280;26963;42.666;23.366;2023-07-22T05:57:05;94946.22;;;28.82;40.58
40205;BME280;26963;42.666;23.366;2023-07-22T05:59:31;94977.84;;;29.04;40.68
40205;BME280;26963;42.666;23.366;2023-07-22T06:01:57;94975.47;;;29.06;40.34
40205;BME280;26963;42.666;23.366;2023-07-22T06:04:22;94931.31;;;28.79;40.62
40205;BME280;26963;42.666;23.366;2023-07-22T06:06:48;94977.38;;;29.09;40.28
40205;BME280;26963;42.666;23.366;2023-07-22T06:09:14;94988.25;;;29.24;39.82
40205;BME280;26963;42.666;23.366;2023-07-22T06:11:39;94841.03;;;28.25;39.53
40205;BME280;26963;42.666;23.366;2023-07-22T06:14:05;94999.56;;;29.33;39.47
40205;BME280;26963;42.666;23.366;2023-07-22T06:16:31;95004.94;;;29.44;39.58
40205;BME280;26963;42.666;23.366;2023-07-22T06:18:56;95015.13;;;29.47;39.73
40205;BME280;26963;42.666;23.366;2023-07-22T06:21:22;94976.00;;;29.25;39.43
40205;BME280;26963;42.666;23.366;2023-07-22T06:23:48;94982.94;;;29.40;39.14
40205;BME280;26963;42.666;23.366;2023-07-22T06:26:13;95003.50;;;29.63;39.46
40205;BME280;26963;42.666;23.366;2023-07-22T06:28:39;95015.47;;;29.80;39.26
40205;BME280;26963;42.666;23.366;2023-07-22T06:31:04;95020.81;;;29.94;39.01
40205;BME280;26963;42.666;23.366;2023-07-22T06:33:29;95011.06;;;30.65;38.17
40205;BME280;26963;42.666;23.366;2023-07-22T06:35:55;95026.50;;;33.61;32.71
40205;BME280;26963;42.666;23.366;2023-07-22T06:38:21;94967.31;;;35.34;29.54
40205;BME280;26963;42.666;23.366;2023-07-22T06:40:46;95025.47;;;37.32;26.93
40205;BME280;26963;42.666;23.366;2023-07-22T06:43:12;95019.75;;;38.73;24.61
40205;BME280;26963;42.666;23.366;2023-07-22T06:45:37;95007.31;;;39.83;23.17
40205;BME280;26963;42.666;23.366;2023-07-22T06:48:03;95014.78;;;40.92;22.41
40205;BME280;26963;42.666;23.366;2023-07-22T06:50:28;95027.22;;;41.80;21.21
40205;BME280;26963;42.666;23.366;2023-07-22T06:52:54;94992.72;;;42.43;20.26
40205;BME280;26963;42.666;23.366;2023-07-22T06:55:19;95014.72;;;42.99;19.63
40205;BME280;26963;42.666;23.366;2023-07-22T06:57:48;95008.94;;;43.26;19.68
40205;BME280;26963;42.666;23.366;2023-07-22T07:00:13;95016.00;;;43.98;18.90
40205;BME280;26963;42.666;23.366;2023-07-22T07:02:41;95006.50;;;44.36;18.58
40205;BME280;26963;42.666;23.366;2023-07-22T07:05:06;94966.41;;;44.54;18.20
40205;BME280;26963;42.666;23.366;2023-07-22T07:07:32;94918.41;;;44.66;17.43
40205;BME280;26963;42.666;23.366;2023-07-22T07:09:58;94977.22;;;45.20;16.92
40205;BME280;26963;42.666;23.366;2023-07-22T07:12:23;95008.63;;;45.83;16.67
40205;BME280;26963;42.666;23.366;2023-07-22T07:14:53;95011.94;;;45.93;16.60
40205;BME280;26963;42.666;23.366;2023-07-22T07:17:18;94994.94;;;45.63;16.81
40205;BME280;26963;42.666;23.366;2023-07-22T07:19:44;95012.41;;;45.97;16.76
40205;BME280;26963;42.666;23.366;2023-07-22T07:22:10;94976.97;;;45.90;16.37
40205;BME280;26963;42.666;23.366;2023-07-22T07:24:35;95000.41;;;46.46;16.30
40205;BME280;26963;42.666;23.366;2023-07-22T07:27:01;94970.81;;;46.72;15.37
40205;BME280;26963;42.666;23.366;2023-07-22T07:29:27;94963.44;;;47.07;15.24
40205;BME280;26963;42.666;23.366;2023-07-22T07:31:52;95005.00;;;47.37;15.20
40205;BME280;26963;42.666;23.366;2023-07-22T07:34:18;94981.84;;;47.71;14.86
40205;BME280;26963;42.666;23.366;2023-07-22T07:36:43;94975.94;;;48.01;14.64
40205;BME280;26963;42.666;23.366;2023-07-22T07:39:09;94978.72;;;48.34;14.05
40205;BME280;26963;42.666;23.366;2023-07-22T07:41:34;94989.03;;;48.64;14.16
40205;BME280;26963;42.666;23.366;2023-07-22T07:44:00;94990.34;;;48.76;14.30
40205;BME280;26963;42.666;23.366;2023-07-22T07:46:27;94979.06;;;48.84;13.87
40205;BME280;26963;42.666;23.366;2023-07-22T07:48:58;94949.28;;;48.64;13.85
40205;BME280;26963;42.666;23.366;2023-07-22T07:51:27;94987.91;;;48.94;13.55
40205;BME280;26963;42.666;23.366;2023-07-22T07:53:53;94986.06;;;48.83;13.71
40205;BME280;26963;42.666;23.366;2023-07-22T07:56:20;94980.50;;;48.64;14.13
40205;BME280;26963;42.666;23.366;2023-07-22T07:58:47;94981.16;;;48.57;13.53
40205;BME280;26963;42.666;23.366;2023-07-22T08:01:13;94973.94;;;48.42;13.21
40205;BME280;26963;42.666;23.366;2023-07-22T08:03:40;94983.13;;;48.48;13.36
40205;BME280;26963;42.666;23.366;2023-07-22T08:06:07;94979.94;;;48.39;13.48
40205;BME280;26963;42.666;23.366;2023-07-22T08:08:33;94976.66;;;48.48;13.51
40205;BME280;26963;42.666;23.366;2023-07-22T08:13:31;94981.59;;;48.74;13.26
40205;BME280;26963;42.666;23.366;2023-07-22T08:15:59;94963.69;;;48.66;13.42
40205;BME280;26963;42.666;23.366;2023-07-22T08:18:25;94978.09;;;48.95;13.56
40205;BME280;26963;42.666;23.366;2023-07-22T08:20:52;94972.59;;;49.10;13.34
40205;BME280;26963;42.666;23.366;2023-07-22T08:23:17;94958.19;;;49.08;13.62
40205;BME280;26963;42.666;23.366;2023-07-22T08:25:43;94930.19;;;49.12;13.23
40205;BME280;26963;42.666;23.366;2023-07-22T08:28:08;94970.81;;;49.55;13.13
40205;BME280;26963;42.666;23.366;2023-07-22T08:30:34;94958.72;;;49.55;13.27
40205;BME280;26963;42.666;23.366;2023-07-22T08:33:00;94956.22;;;49.03;12.90
40205;BME280;26963;42.666;23.366;2023-07-22T08:35:26;94914.94;;;47.95;13.57
40205;BME280;26963;42.666;23.366;2023-07-22T08:37:52;94959.66;;;47.89;14.10
40205;BME280;26963;42.666;23.366;2023-07-22T08:40:19;94926.69;;;47.20;14.66
40205;BME280;26963;42.666;23.366;2023-07-22T08:42:45;94956.06;;;47.17;14.48
40205;BME280;26963;42.666;23.366;2023-07-22T08:45:11;94950.78;;;47.27;14.49
40205;BME280;26963;42.666;23.366;2023-07-22T08:47:41;94944.72;;;47.56;14.42
40205;BME280;26963;42.666;23.366;2023-07-22T08:50:10;94903.06;;;47.50;14.53
40205;BME280;26963;42.666;23.366;2023-07-22T08:52:37;94931.44;;;48.10;14.29
40205;BME280;26963;42.666;23.366;2023-07-22T08:55:03;94912.94;;;48.22;13.91
40205;BME280;26963;42.666;23.366;2023-07-22T08:57:29;94923.09;;;48.71;13.99
40205;BME280;26963;42.666;23.366;2023-07-22T08:59:56;94923.56;;;47.89;14.02
40205;BME280;26963;42.666;23.366;2023-07-22T09:02:24;94915.63;;;47.88;14.59
40205;BME280;26963;42.666;23.366;2023-07-22T09:04:50;94918.81;;;47.78;14.72
40205;BME280;26963;42.666;23.366;2023-07-22T09:07:16;94919.16;;;47.42;14.82
40205;BME280;26963;42.666;23.366;2023-07-22T09:09:44;94881.16;;;46.80;15.21
40205;BME280;26963;42.666;23.366;2023-07-22T09:12:12;94907.47;;;46.75;15.04
40205;BME280;26963;42.666;23.366;2023-07-22T09:14:39;94880.13;;;46.15;15.70
40205;BME280;26963;42.666;23.366;2023-07-22T09:17:05;94887.84;;;46.58;15.57
40205;BME280;26963;42.666;23.366;2023-07-22T09:19:31;94881.31;;;46.69;14.90
40205;BME280;26963;42.666;23.366;2023-07-22T09:21:57;94909.63;;;47.07;15.00
40205;BME280;26963;42.666;23.366;2023-07-22T09:24:25;94908.09;;;46.18;15.54
40205;BME280;26963;42.666;23.366;2023-07-22T09:26:51;94892.63;;;44.98;17.00
40205;BME280;26963;42.666;23.366;2023-07-22T09:29:17;94825.41;;;43.61;17.95
40205;BME280;26963;42.666;23.366;2023-07-22T09:31:52;94901.78;;;42.63;19.30
40205;BME280;26963;42.666;23.366;2023-07-22T09:34:17;94861.03;;;41.55;20.14
40205;BME280;26963;42.666;23.366;2023-07-22T09:36:54;94874.31;;;40.96;21.42
40205;BME280;26963;42.666;23.366;2023-07-22T09:39:20;94916.44;;;40.55;21.72
40205;BME280;26963;42.666;23.366;2023-07-22T09:41:47;94900.00;;;40.27;21.52
40205;BME280;26963;42.666;23.366;2023-07-22T09:44:13;94865.97;;;39.78;22.30
40205;BME280;26963;42.666;23.366;2023-07-22T09:46:38;94893.19;;;39.77;22.48
40205;BME280;26963;42.666;23.366;2023-07-22T09:49:05;94878.94;;;39.75;22.47
40205;BME280;26963;42.666;23.366;2023-07-22T09:51:36;94891.94;;;39.78;22.64
40205;BME280;26963;42.666;23.366;2023-07-22T09:54:03;94888.38;;;39.63;22.64
40205;BME280;26963;42.666;23.366;2023-07-22T09:56:29;94890.69;;;39.50;22.46
40205;BME280;26963;42.666;23.366;2023-07-22T09:58:55;94880.50;;;39.31;22.13
40205;BME280;26963;42.666;23.366;2023-07-22T10:01:25;94865.72;;;39.01;22.95
40205;BME280;26963;42.666;23.366;2023-07-22T10:03:55;94877.59;;;38.96;23.78
40205;BME280;26963;42.666;23.366;2023-07-22T10:06:27;94865.31;;;38.78;23.49
40205;BME280;26963;42.666;23.366;2023-07-22T10:08:55;94887.13;;;38.74;23.86
40205;BME280;26963;42.666;23.366;2023-07-22T10:11:23;94857.25;;;38.41;24.03
40205;BME280;26963;42.666;23.366;2023-07-22T10:13:50;94866.69;;;38.20;24.33
40205;BME280;26963;42.666;23.366;2023-07-22T10:16:16;94844.41;;;37.86;24.75
40205;BME280;26963;42.666;23.366;2023-07-22T10:18:42;94856.97;;;37.81;24.32
40205;BME280;26963;42.666;23.366;2023-07-22T10:21:08;94850.56;;;37.57;24.74
40205;BME280;26963;42.666;23.366;2023-07-22T10:23:35;94861.78;;;37.47;24.01
40205;BME280;26963;42.666;23.366;2023-07-22T10:26:01;94870.66;;;37.36;24.46
40205;BME280;26963;42.666;23.366;2023-07-22T10:28:29;94860.88;;;37.32;24.87
40205;BME280;26963;42.666;23.366;2023-07-22T10:30:54;94849.88;;;37.37;25.10
40205;BME280;26963;42.666;23.366;2023-07-22T10:33:22;94847.84;;;37.38;24.36
40205;BME280;26963;42.666;23.366;2023-07-22T10:36:04;94863.03;;;37.37;24.60
40205;BME280;26963;42.666;23.366;2023-07-22T10:38:30;94873.28;;;37.40;24.86
40205;BME280;26963;42.666;23.366;2023-07-22T10:40:56;94841.69;;;37.34;24.82
40205;BME280;26963;42.666;23.366;2023-07-22T10:43:32;94847.72;;;37.23;24.88
40205;BME280;26963;42.666;23.366;2023-07-22T10:46:09;94847.56;;;37.27;25.19
40205;BME280;26963;42.666;23.366;2023-07-22T10:48:36;94848.94;;;37.31;25.16
40205;BME280;26963;42.666;23.366;2023-07-22T10:51:13;94787.69;;;37.03;24.47
40205;BME280;26963;42.666;23.366;2023-07-22T10:53:44;94832.69;;;37.30;24.58
40205;BME280;26963;42.666;23.366;2023-07-22T10:56:11;94849.41;;;37.39;23.54
40205;BME280;26963;42.666;23.366;2023-07-22T11:04:23;94840.41;;;37.44;22.83
40205;BME280;26963;42.666;23.366;2023-07-22T11:12:17;94760.00;;;36.81;23.36
40205;BME280;26963;42.666;23.366;2023-07-22T11:14:52;94825.56;;;37.29;23.12
40205;BME280;26963;42.666;23.366;2023-07-22T11:17:27;94786.13;;;37.02;22.87
40205;BME280;26963;42.666;23.366;2023-07-22T11:19:57;94826.97;;;37.24;22.84
40205;BME280;26963;42.666;23.366;2023-07-22T11:22:23;94829.47;;;37.22;22.89
40205;BME280;26963;42.666;23.366;2023-07-22T11:24:48;94827.75;;;37.25;22.62
40205;BME280;26963;42.666;23.366;2023-07-22T11:27:14;94831.78;;;37.24;22.81
40205;BME280;26963;42.666;23.366;2023-07-22T11:29:40;94823.09;;;37.21;22.73
40205;BME280;26963;42.666;23.366;2023-07-22T11:32:06;94813.81;;;37.15;22.75
40205;BME280;26963;42.666;23.366;2023-07-22T11:34:40;94811.00;;;37.25;22.44
40205;BME280;26963;42.666;23.366;2023-07-22T11:37:06;94816.44;;;37.28;23.34
40205;BME280;26963;42.666;23.366;2023-07-22T11:39:31;94808.50;;;37.27;22.67
40205;BME280;26963;42.666;23.366;2023-07-22T11:42:00;94800.13;;;37.27;22.43
40205;BME280;26963;42.666;23.366;2023-07-22T11:44:27;94739.25;;;36.82;22.98
40205;BME280;26963;42.666;23.366;2023-07-22T11:46:55;94799.69;;;37.28;23.33
40205;BME280;26963;42.666;23.366;2023-07-22T11:49:41;94775.69;;;37.21;22.74
40205;BME280;26963;42.666;23.366;2023-07-22T11:52:17;94797.03;;;37.34;23.25
40205;BME280;26963;42.666;23.366;2023-07-22T11:54:43;94794.25;;;37.34;22.82
40205;BME280;26963;42.666;23.366;2023-07-22T11:57:17;94791.34;;;37.19;22.63
40205;BME280;26963;42.666;23.366;2023-07-22T11:59:50;94798.63;;;37.16;23.42
40205;BME280;26963;42.666;23.366;2023-07-22T12:02:24;94801.91;;;37.15;23.25
40205;BME280;26963;42.666;23.366;2023-07-22T12:05:01;94769.56;;;36.99;23.15
40205;BME280;26963;42.666;23.366;2023-07-22T12:07:31;94755.06;;;36.76;23.56
40205;BME280;26963;42.666;23.366;2023-07-22T12:09:59;94777.34;;;36.95;23.29
40205;BME280;26963;42.666;23.366;2023-07-22T12:12:45;94744.06;;;36.82;23.31
40205;BME280;26963;42.666;23.366;2023-07-22T12:15:12;94786.63;;;37.01;23.28
40205;BME280;26963;42.666;23.366;2023-07-22T12:20:22;94742.41;;;36.66;24.01
40205;BME280;26963;42.666;23.366;2023-07-22T12:22:48;94766.38;;;36.82;23.83
40205;BME280;26963;42.666;23.366;2023-07-22T12:25:14;94765.88;;;36.83;23.86
40205;BME280;26963;42.666;23.366;2023-07-22T12:27:40;94775.34;;;36.86;23.86
40205;BME280;26963;42.666;23.366;2023-07-22T12:30:07;94758.00;;;36.82;24.46
40205;BME280;26963;42.666;23.366;2023-07-22T12:32:33;94736.84;;;36.56;24.35
40205;BME280;26963;42.666;23.366;2023-07-22T12:34:59;94755.69;;;36.80;24.42
40205;BME280;26963;42.666;23.366;2023-07-22T12:37:24;94765.00;;;36.86;24.40
40205;BME280;26963;42.666;23.366;2023-07-22T12:39:51;94705.63;;;36.43;24.32
40205;BME280;26963;42.666;23.366;2023-07-22T12:42:16;94764.34;;;36.92;24.27
40205;BME280;26963;42.666;23.366;2023-07-22T12:44:42;94764.31;;;37.01;24.19
40205;BME280;26963;42.666;23.366;2023-07-22T12:47:08;94747.56;;;37.01;24.29
40205;BME280;26963;42.666;23.366;2023-07-22T12:49:33;94744.47;;;37.08;24.09
40205;BME280;26963;42.666;23.366;2023-07-22T12:51:59;94761.13;;;37.17;23.90
40205;BME280;26963;42.666;23.366;2023-07-22T12:54:30;94745.38;;;37.14;24.27
40205;BME280;26963;42.666;23.366;2023-07-22T12:56:56;94750.63;;;37.12;23.66
40205;BME280;26963;42.666;23.366;2023-07-22T12:59:22;94723.75;;;36.81;24.57
40205;BME280;26963;42.666;23.366;2023-07-22T13:01:48;94742.69;;;36.86;24.34
40205;BME280;26963;42.666;23.366;2023-07-22T13:04:14;94746.72;;;36.85;24.49